sensor_id;sensor_type;location;lat;lon;timestamp;P1;durP1;ratioP1;P2;durP2;ratioP2
78960;SDS011;68362;45.970;12.646;2023-11-19T00:00:55;14.20;;;8.15;;
78960;SDS011;68362;45.970;12.646;2023-11-19T00:02:17;16.80;;;8.70;;
78960;SDS011;68362;45.970;12.646;2023-11-19T00:03:20;15.13;;;8.95;;
78960;SDS011;68362;45.970;12.646;2023-11-19T00:04:23;15.27;;;9.32;;
78960;SDS011;68362;45.970;12.646;2023-11-19T00:05:25;14.85;;;8.38;;
78960;SDS011;68362;45.970;12.646;2023-11-19T00:06:27;15.75;;;8.35;;
78960;SDS011;68362;45.970;12.646;2023-11-19T00:07:29;17.80;;;9.45;;
78960;SDS011;68362;45.970;12.646;2023-11-19T00:08:36;14.80;;;8.88;;
78960;SDS011;68362;45.970;12.646;2023-11-19T00:09:38;14.50;;;7.90;;
78960;SDS011;68362;45.970;12.646;2023-11-19T00:10:41;13.98;;;8.55;;
78960;SDS011;68362;45.970;12.646;2023-11-19T00:11:43;13.45;;;7.88;;
78960;SDS011;68362;45.970;12.646;2023-11-19T00:12:55;14.25;;;7.95;;
78960;SDS011;68362;45.970;12.646;2023-11-19T00:13:58;15.25;;;8.63;;
78960;SDS011;68362;45.970;12.646;2023-11-19T00:15:00;12.82;;;7.90;;
78960;SDS011;68362;45.970;12.646;2023-11-19T00:16:03;13.57;;;7.75;;
78960;SDS011;68362;45.970;12.646;2023-11-19T00:17:06;13.27;;;7.80;;
78960;SDS011;68362;45.970;12.646;2023-11-19T00:18:08;10.95;;;6.85;;
78960;SDS011;68362;45.970;12.646;2023-11-19T00:19:10;14.35;;;7.63;;
78960;SDS011;68362;45.970;12.646;2023-11-19T00:20:18;12.43;;;6.63;;
78960;SDS011;68362;45.970;12.646;2023-11-19T00:21:21;11.05;;;6.70;;
78960;SDS011;68362;45.970;12.646;2023-11-19T00:22:23;11.65;;;6.43;;
78960;SDS011;68362;45.970;12.646;2023-11-19T00:23:27;10.88;;;6.68;;
78960;SDS011;68362;45.970;12.646;2023-11-19T00:25:33;9.27;;;6.05;;
78960;SDS011;68362;45.970;12.646;2023-11-19T00:26:35;11.60;;;6.57;;
78960;SDS011;68362;45.970;12.646;2023-11-19T00:27:37;9.93;;;6.03;;
78960;SDS011;68362;45.970;12.646;2023-11-19T00:28:39;12.27;;;6.63;;
78960;SDS011;68362;45.970;12.646;2023-11-19T00:29:41;9.55;;;6.05;;
78960;SDS011;68362;45.970;12.646;2023-11-19T00:30:44;10.27;;;5.60;;
78960;SDS011;68362;45.970;12.646;2023-11-19T00:31:46;11.00;;;6.55;;
78960;SDS011;68362;45.970;12.646;2023-11-19T00:32:48;14.02;;;6.50;;
78960;SDS011;68362;45.970;12.646;2023-11-19T00:33:51;12.18;;;6.25;;
78960;SDS011;68362;45.970;12.646;2023-11-19T00:34:53;10.70;;;5.68;;
78960;SDS011;68362;45.970;12.646;2023-11-19T00:35:55;11.20;;;6.55;;
78960;SDS011;68362;45.970;12.646;2023-11-19T00:36:57;10.95;;;6.32;;
78960;SDS011;68362;45.970;12.646;2023-11-19T00:37:59;11.40;;;6.70;;
78960;SDS011;68362;45.970;12.646;2023-11-19T00:39:02;12.50;;;6.80;;
78960;SDS011;68362;45.970;12.646;2023-11-19T00:40:04;9.90;;;6.57;;
78960;SDS011;68362;45.970;12.646;2023-11-19T00:41:08;9.52;;;6.35;;
78960;SDS011;68362;45.970;12.646;2023-11-19T00:42:10;11.05;;;6.47;;
78960;SDS011;68362;45.970;12.646;2023-11-19T00:43:12;10.15;;;6.70;;
78960;SDS011;68362;45.970;12.646;2023-11-19T00:44:14;10.30;;;6.70;;
78960;SDS011;68362;45.970;12.646;2023-11-19T00:45:17;10.75;;;6.88;;
78960;SDS011;68362;45.970;12.646;2023-11-19T00:46:19;10.80;;;6.82;;
78960;SDS011;68362;45.970;12.646;2023-11-19T00:47:21;13.63;;;7.03;;
78960;SDS011;68362;45.970;12.646;2023-11-19T00:48:23;11.68;;;7.28;;
78960;SDS011;68362;45.970;12.646;2023-11-19T00:49:26;12.25;;;6.13;;
78960;SDS011;68362;45.970;12.646;2023-11-19T00:50:28;9.82;;;6.97;;
78960;SDS011;68362;45.970;12.646;2023-11-19T00:52:33;11.07;;;6.05;;
78960;SDS011;68362;45.970;12.646;2023-11-19T00:53:35;11.25;;;6.72;;
78960;SDS011;68362;45.970;12.646;2023-11-19T00:54:37;9.65;;;6.43;;
78960;SDS011;68362;45.970;12.646;2023-11-19T00:55:40;12.93;;;7.07;;
78960;SDS011;68362;45.970;12.646;2023-11-19T00:56:45;12.95;;;6.97;;
78960;SDS011;68362;45.970;12.646;2023-11-19T00:57:47;10.75;;;7.22;;
78960;SDS011;68362;45.970;12.646;2023-11-19T00:58:49;10.90;;;6.28;;
78960;SDS011;68362;45.970;12.646;2023-11-19T00:59:51;11.88;;;7.22;;
78960;SDS011;68362;45.970;12.646;2023-11-19T01:00:53;11.50;;;6.35;;
78960;SDS011;68362;45.970;12.646;2023-11-19T01:01:56;13.88;;;6.45;;
78960;SDS011;68362;45.970;12.646;2023-11-19T01:02:58;10.48;;;6.72;;
78960;SDS011;68362;45.970;12.646;2023-11-19T01:04:02;13.23;;;7.60;;
78960;SDS011;68362;45.970;12.646;2023-11-19T01:05:04;12.80;;;7.72;;
78960;SDS011;68362;45.970;12.646;2023-11-19T01:06:10;14.00;;;8.15;;
78960;SDS011;68362;45.970;12.646;2023-11-19T01:07:12;13.18;;;8.45;;
78960;SDS011;68362;45.970;12.646;2023-11-19T01:09:17;13.25;;;8.30;;
78960;SDS011;68362;45.970;12.646;2023-11-19T01:10:20;13.45;;;7.30;;
78960;SDS011;68362;45.970;12.646;2023-11-19T01:11:22;10.75;;;6.65;;
78960;SDS011;68362;45.970;12.646;2023-11-19T01:12:25;9.88;;;5.88;;
78960;SDS011;68362;45.970;12.646;2023-11-19T01:13:27;12.50;;;7.20;;
78960;SDS011;68362;45.970;12.646;2023-11-19T01:14:29;12.23;;;5.95;;
78960;SDS011;68362;45.970;12.646;2023-11-19T01:15:32;11.77;;;7.03;;
78960;SDS011;68362;45.970;12.646;2023-11-19T01:16:34;12.02;;;7.05;;
78960;SDS011;68362;45.970;12.646;2023-11-19T01:17:37;12.05;;;7.13;;
78960;SDS011;68362;45.970;12.646;2023-11-19T01:18:40;10.07;;;6.72;;
78960;SDS011;68362;45.970;12.646;2023-11-19T01:19:42;10.50;;;7.35;;
78960;SDS011;68362;45.970;12.646;2023-11-19T01:20:44;14.40;;;8.10;;
78960;SDS011;68362;45.970;12.646;2023-11-19T01:21:46;13.18;;;7.63;;
78960;SDS011;68362;45.970;12.646;2023-11-19T01:22:49;12.38;;;7.95;;
78960;SDS011;68362;45.970;12.646;2023-11-19T01:23:52;13.43;;;7.68;;
78960;SDS011;68362;45.970;12.646;2023-11-19T01:24:54;13.55;;;7.57;;
78960;SDS011;68362;45.970;12.646;2023-11-19T01:25:56;11.32;;;6.53;;
78960;SDS011;68362;45.970;12.646;2023-11-19T01:26:58;10.80;;;6.35;;
78960;SDS011;68362;45.970;12.646;2023-11-19T01:28:02;8.50;;;5.38;;
78960;SDS011;68362;45.970;12.646;2023-11-19T01:29:04;10.48;;;5.53;;
78960;SDS011;68362;45.970;12.646;2023-11-19T01:30:06;8.05;;;4.82;;
78960;SDS011;68362;45.970;12.646;2023-11-19T01:31:15;6.53;;;5.00;;
78960;SDS011;68362;45.970;12.646;2023-11-19T01:32:17;9.45;;;4.93;;
78960;SDS011;68362;45.970;12.646;2023-11-19T01:33:19;7.40;;;4.75;;
78960;SDS011;68362;45.970;12.646;2023-11-19T01:34:23;7.38;;;4.47;;
78960;SDS011;68362;45.970;12.646;2023-11-19T01:35:25;9.23;;;5.10;;
78960;SDS011;68362;45.970;12.646;2023-11-19T01:36:28;7.60;;;4.63;;
78960;SDS011;68362;45.970;12.646;2023-11-19T01:37:30;12.85;;;5.63;;
78960;SDS011;68362;45.970;12.646;2023-11-19T01:38:39;9.27;;;4.90;;
78960;SDS011;68362;45.970;12.646;2023-11-19T01:39:44;7.47;;;5.30;;
78960;SDS011;68362;45.970;12.646;2023-11-19T01:40:59;9.35;;;5.47;;
78960;SDS011;68362;45.970;12.646;2023-11-19T01:42:04;8.32;;;4.38;;
78960;SDS011;68362;45.970;12.646;2023-11-19T01:43:07;6.97;;;4.50;;
78960;SDS011;68362;45.970;12.646;2023-11-19T01:44:13;8.38;;;4.43;;
78960;SDS011;68362;45.970;12.646;2023-11-19T01:45:21;8.00;;;4.28;;
78960;SDS011;68362;45.970;12.646;2023-11-19T01:46:29;6.60;;;4.30;;
78960;SDS011;68362;45.970;12.646;2023-11-19T01:47:32;5.78;;;3.78;;
78960;SDS011;68362;45.970;12.646;2023-11-19T01:48:35;7.18;;;4.30;;
78960;SDS011;68362;45.970;12.646;2023-11-19T01:49:42;5.85;;;4.18;;
78960;SDS011;68362;45.970;12.646;2023-11-19T01:50:45;7.45;;;4.47;;
78960;SDS011;68362;45.970;12.646;2023-11-19T01:51:47;5.65;;;4.10;;
78960;SDS011;68362;45.970;12.646;2023-11-19T01:52:52;7.28;;;4.15;;
78960;SDS011;68362;45.970;12.646;2023-11-19T01:53:55;5.75;;;3.95;;
78960;SDS011;68362;45.970;12.646;2023-11-19T01:54:59;6.07;;;3.78;;
78960;SDS011;68362;45.970;12.646;2023-11-19T01:56:01;6.43;;;4.05;;
78960;SDS011;68362;45.970;12.646;2023-11-19T01:57:05;8.20;;;3.78;;
78960;SDS011;68362;45.970;12.646;2023-11-19T01:58:08;6.50;;;3.65;;
78960;SDS011;68362;45.970;12.646;2023-11-19T01:59:10;6.22;;;3.78;;
78960;SDS011;68362;45.970;12.646;2023-11-19T02:00:15;6.88;;;3.88;;
78960;SDS011;68362;45.970;12.646;2023-11-19T02:02:21;6.30;;;3.65;;
78960;SDS011;68362;45.970;12.646;2023-11-19T02:03:24;6.78;;;3.60;;
78960;SDS011;68362;45.970;12.646;2023-11-19T02:04:28;5.30;;;3.50;;
78960;SDS011;68362;45.970;12.646;2023-11-19T02:05:31;5.30;;;3.30;;
78960;SDS011;68362;45.970;12.646;2023-11-19T02:06:34;4.68;;;3.35;;
78960;SDS011;68362;45.970;12.646;2023-11-19T02:07:37;6.05;;;3.17;;
78960;SDS011;68362;45.970;12.646;2023-11-19T02:08:43;5.97;;;3.63;;
78960;SDS011;68362;45.970;12.646;2023-11-19T02:09:48;5.15;;;3.53;;
78960;SDS011;68362;45.970;12.646;2023-11-19T02:10:50;4.72;;;2.85;;
78960;SDS011;68362;45.970;12.646;2023-11-19T02:11:53;5.82;;;3.35;;
78960;SDS011;68362;45.970;12.646;2023-11-19T02:12:56;5.38;;;2.88;;
78960;SDS011;68362;45.970;12.646;2023-11-19T02:14:07;4.93;;;2.95;;
78960;SDS011;68362;45.970;12.646;2023-11-19T02:15:09;6.30;;;3.30;;
78960;SDS011;68362;45.970;12.646;2023-11-19T02:16:12;6.03;;;3.33;;
78960;SDS011;68362;45.970;12.646;2023-11-19T02:18:30;5.93;;;2.90;;
78960;SDS011;68362;45.970;12.646;2023-11-19T02:19:32;3.83;;;3.05;;
78960;SDS011;68362;45.970;12.646;2023-11-19T02:20:35;7.00;;;3.28;;
78960;SDS011;68362;45.970;12.646;2023-11-19T02:21:37;5.75;;;3.75;;
78960;SDS011;68362;45.970;12.646;2023-11-19T02:22:40;3.53;;;2.60;;
78960;SDS011;68362;45.970;12.646;2023-11-19T02:23:42;4.03;;;2.67;;
78960;SDS011;68362;45.970;12.646;2023-11-19T02:24:45;6.07;;;2.75;;
78960;SDS011;68362;45.970;12.646;2023-11-19T02:26:02;6.05;;;3.88;;
78960;SDS011;68362;45.970;12.646;2023-11-19T02:27:15;5.53;;;3.22;;
78960;SDS011;68362;45.970;12.646;2023-11-19T02:28:22;6.60;;;3.47;;
78960;SDS011;68362;45.970;12.646;2023-11-19T02:29:25;4.38;;;2.70;;
78960;SDS011;68362;45.970;12.646;2023-11-19T02:30:27;4.00;;;2.67;;
78960;SDS011;68362;45.970;12.646;2023-11-19T02:31:31;6.13;;;3.03;;
78960;SDS011;68362;45.970;12.646;2023-11-19T02:32:33;3.70;;;2.40;;
78960;SDS011;68362;45.970;12.646;2023-11-19T02:33:35;4.97;;;2.65;;
78960;SDS011;68362;45.970;12.646;2023-11-19T02:34:38;4.50;;;2.80;;
78960;SDS011;68362;45.970;12.646;2023-11-19T02:35:40;4.07;;;2.70;;
78960;SDS011;68362;45.970;12.646;2023-11-19T02:36:42;4.25;;;2.67;;
78960;SDS011;68362;45.970;12.646;2023-11-19T02:37:44;3.97;;;2.45;;
78960;SDS011;68362;45.970;12.646;2023-11-19T02:38:46;4.65;;;2.67;;
78960;SDS011;68362;45.970;12.646;2023-11-19T02:39:49;5.50;;;2.60;;
78960;SDS011;68362;45.970;12.646;2023-11-19T02:40:51;4.38;;;2.72;;
78960;SDS011;68362;45.970;12.646;2023-11-19T02:41:53;5.28;;;2.70;;
78960;SDS011;68362;45.970;12.646;2023-11-19T02:42:55;3.90;;;2.58;;
78960;SDS011;68362;45.970;12.646;2023-11-19T02:43:58;4.70;;;2.47;;
78960;SDS011;68362;45.970;12.646;2023-11-19T02:45:00;5.47;;;3.33;;
78960;SDS011;68362;45.970;12.646;2023-11-19T02:46:02;4.68;;;2.75;;
78960;SDS011;68362;45.970;12.646;2023-11-19T02:47:12;4.15;;;2.30;;
78960;SDS011;68362;45.970;12.646;2023-11-19T02:48:14;4.20;;;2.67;;
78960;SDS011;68362;45.970;12.646;2023-11-19T02:49:17;5.65;;;2.92;;
78960;SDS011;68362;45.970;12.646;2023-11-19T02:50:19;5.38;;;2.45;;
78960;SDS011;68362;45.970;12.646;2023-11-19T02:51:27;5.55;;;2.50;;
78960;SDS011;68362;45.970;12.646;2023-11-19T02:52:29;5.93;;;2.95;;
78960;SDS011;68362;45.970;12.646;2023-11-19T02:53:36;5.68;;;3.10;;
78960;SDS011;68362;45.970;12.646;2023-11-19T02:54:39;4.70;;;2.47;;
78960;SDS011;68362;45.970;12.646;2023-11-19T02:55:41;3.88;;;2.53;;
78960;SDS011;68362;45.970;12.646;2023-11-19T02:56:50;5.40;;;2.97;;
78960;SDS011;68362;45.970;12.646;2023-11-19T02:57:57;4.25;;;2.35;;
78960;SDS011;68362;45.970;12.646;2023-11-19T02:59:01;3.63;;;2.40;;
78960;SDS011;68362;45.970;12.646;2023-11-19T03:00:18;3.50;;;1.92;;
78960;SDS011;68362;45.970;12.646;2023-11-19T03:01:25;4.95;;;2.33;;
78960;SDS011;68362;45.970;12.646;2023-11-19T03:02:35;4.38;;;2.30;;
78960;SDS011;68362;45.970;12.646;2023-11-19T03:03:45;3.67;;;2.13;;
78960;SDS011;68362;45.970;12.646;2023-11-19T03:04:51;5.03;;;2.42;;
78960;SDS011;68362;45.970;12.646;2023-11-19T03:05:53;4.53;;;2.17;;
78960;SDS011;68362;45.970;12.646;2023-11-19T03:06:55;4.75;;;2.47;;
78960;SDS011;68362;45.970;12.646;2023-11-19T03:07:58;4.05;;;2.25;;
78960;SDS011;68362;45.970;12.646;2023-11-19T03:09:00;4.95;;;2.45;;
78960;SDS011;68362;45.970;12.646;2023-11-19T03:10:08;4.30;;;2.50;;
78960;SDS011;68362;45.970;12.646;2023-11-19T03:12:13;5.82;;;2.38;;
78960;SDS011;68362;45.970;12.646;2023-11-19T03:13:15;4.40;;;2.83;;
78960;SDS011;68362;45.970;12.646;2023-11-19T03:14:17;3.05;;;1.85;;
78960;SDS011;68362;45.970;12.646;2023-11-19T03:15:20;4.32;;;1.92;;
78960;SDS011;68362;45.970;12.646;2023-11-19T03:16:22;4.43;;;2.35;;
78960;SDS011;68362;45.970;12.646;2023-11-19T03:17:25;4.35;;;2.22;;
78960;SDS011;68362;45.970;12.646;2023-11-19T03:18:27;3.92;;;2.33;;
78960;SDS011;68362;45.970;12.646;2023-11-19T03:20:32;4.93;;;2.03;;
78960;SDS011;68362;45.970;12.646;2023-11-19T03:21:34;6.85;;;2.67;;
78960;SDS011;68362;45.970;12.646;2023-11-19T03:22:37;5.38;;;2.38;;
78960;SDS011;68362;45.970;12.646;2023-11-19T03:23:39;4.07;;;2.63;;
78960;SDS011;68362;45.970;12.646;2023-11-19T03:24:42;4.32;;;2.22;;
78960;SDS011;68362;45.970;12.646;2023-11-19T03:25:44;3.53;;;2.08;;
78960;SDS011;68362;45.970;12.646;2023-11-19T03:26:49;4.10;;;2.28;;
78960;SDS011;68362;45.970;12.646;2023-11-19T03:27:54;3.55;;;2.05;;
78960;SDS011;68362;45.970;12.646;2023-11-19T03:28:56;3.50;;;2.28;;
78960;SDS011;68362;45.970;12.646;2023-11-19T03:30:01;3.05;;;1.75;;
78960;SDS011;68362;45.970;12.646;2023-11-19T03:31:06;4.53;;;2.33;;
78960;SDS011;68362;45.970;12.646;2023-11-19T03:32:11;7.07;;;2.58;;
78960;SDS011;68362;45.970;12.646;2023-11-19T03:33:13;3.92;;;2.45;;
78960;SDS011;68362;45.970;12.646;2023-11-19T03:34:16;5.13;;;2.65;;
78960;SDS011;68362;45.970;12.646;2023-11-19T03:35:19;4.28;;;2.40;;
78960;SDS011;68362;45.970;12.646;2023-11-19T03:36:21;5.80;;;2.28;;
78960;SDS011;68362;45.970;12.646;2023-11-19T03:37:24;3.17;;;2.10;;
78960;SDS011;68362;45.970;12.646;2023-11-19T03:38:27;5.43;;;2.53;;
78960;SDS011;68362;45.970;12.646;2023-11-19T03:39:29;4.53;;;2.17;;
78960;SDS011;68362;45.970;12.646;2023-11-19T03:40:31;3.85;;;2.15;;
78960;SDS011;68362;45.970;12.646;2023-11-19T03:41:33;3.83;;;2.63;;
78960;SDS011;68362;45.970;12.646;2023-11-19T03:42:38;3.97;;;1.95;;
78960;SDS011;68362;45.970;12.646;2023-11-19T03:43:42;3.60;;;2.35;;
78960;SDS011;68362;45.970;12.646;2023-11-19T03:44:44;3.63;;;2.22;;
78960;SDS011;68362;45.970;12.646;2023-11-19T03:45:46;2.80;;;2.00;;
78960;SDS011;68362;45.970;12.646;2023-11-19T03:46:49;3.47;;;2.20;;
78960;SDS011;68362;45.970;12.646;2023-11-19T03:47:52;4.03;;;1.95;;
78960;SDS011;68362;45.970;12.646;2023-11-19T03:48:54;4.63;;;2.40;;
78960;SDS011;68362;45.970;12.646;2023-11-19T03:49:56;3.47;;;2.15;;
78960;SDS011;68362;45.970;12.646;2023-11-19T03:50:58;3.80;;;2.20;;
78960;SDS011;68362;45.970;12.646;2023-11-19T03:52:01;3.15;;;2.15;;
78960;SDS011;68362;45.970;12.646;2023-11-19T03:53:03;3.88;;;2.17;;
78960;SDS011;68362;45.970;12.646;2023-11-19T03:55:08;3.33;;;2.03;;
78960;SDS011;68362;45.970;12.646;2023-11-19T03:56:11;4.95;;;2.28;;
78960;SDS011;68362;45.970;12.646;2023-11-19T03:57:13;4.40;;;2.58;;
78960;SDS011;68362;45.970;12.646;2023-11-19T03:58:17;3.80;;;2.53;;
78960;SDS011;68362;45.970;12.646;2023-11-19T03:59:19;3.63;;;2.15;;
78960;SDS011;68362;45.970;12.646;2023-11-19T04:00:22;3.80;;;1.88;;
78960;SDS011;68362;45.970;12.646;2023-11-19T04:01:24;4.22;;;2.60;;
78960;SDS011;68362;45.970;12.646;2023-11-19T04:02:26;4.68;;;2.22;;
78960;SDS011;68362;45.970;12.646;2023-11-19T04:03:29;6.38;;;2.53;;
78960;SDS011;68362;45.970;12.646;2023-11-19T04:04:32;3.75;;;2.38;;
78960;SDS011;68362;45.970;12.646;2023-11-19T04:05:34;3.75;;;2.13;;
78960;SDS011;68362;45.970;12.646;2023-11-19T04:06:36;4.07;;;2.50;;
78960;SDS011;68362;45.970;12.646;2023-11-19T04:07:38;4.55;;;2.47;;
78960;SDS011;68362;45.970;12.646;2023-11-19T04:08:41;5.22;;;2.28;;
78960;SDS011;68362;45.970;12.646;2023-11-19T04:09:43;4.97;;;2.10;;
78960;SDS011;68362;45.970;12.646;2023-11-19T04:10:45;4.60;;;2.70;;
78960;SDS011;68362;45.970;12.646;2023-11-19T04:11:47;4.82;;;2.47;;
78960;SDS011;68362;45.970;12.646;2023-11-19T04:12:49;4.90;;;2.30;;
78960;SDS011;68362;45.970;12.646;2023-11-19T04:13:52;4.88;;;2.20;;
78960;SDS011;68362;45.970;12.646;2023-11-19T04:14:54;4.55;;;2.42;;
78960;SDS011;68362;45.970;12.646;2023-11-19T04:15:59;4.05;;;2.53;;
78960;SDS011;68362;45.970;12.646;2023-11-19T04:17:02;5.22;;;2.72;;
78960;SDS011;68362;45.970;12.646;2023-11-19T04:18:04;4.03;;;2.60;;
78960;SDS011;68362;45.970;12.646;2023-11-19T04:19:06;5.47;;;2.55;;
78960;SDS011;68362;45.970;12.646;2023-11-19T04:20:09;4.05;;;2.28;;
78960;SDS011;68362;45.970;12.646;2023-11-19T04:21:15;4.40;;;2.50;;
78960;SDS011;68362;45.970;12.646;2023-11-19T04:22:17;4.30;;;2.17;;
78960;SDS011;68362;45.970;12.646;2023-11-19T04:23:19;3.00;;;1.90;;
78960;SDS011;68362;45.970;12.646;2023-11-19T04:24:22;3.53;;;2.38;;
78960;SDS011;68362;45.970;12.646;2023-11-19T04:25:24;5.10;;;2.60;;
78960;SDS011;68362;45.970;12.646;2023-11-19T04:26:27;4.20;;;2.58;;
78960;SDS011;68362;45.970;12.646;2023-11-19T04:27:29;4.55;;;2.63;;
78960;SDS011;68362;45.970;12.646;2023-11-19T04:28:31;3.90;;;2.83;;
78960;SDS011;68362;45.970;12.646;2023-11-19T04:29:34;3.95;;;2.65;;
78960;SDS011;68362;45.970;12.646;2023-11-19T04:30:36;3.80;;;2.38;;
78960;SDS011;68362;45.970;12.646;2023-11-19T04:31:39;5.95;;;3.00;;
78960;SDS011;68362;45.970;12.646;2023-11-19T04:32:41;4.10;;;2.30;;
78960;SDS011;68362;45.970;12.646;2023-11-19T04:33:44;4.85;;;2.35;;
78960;SDS011;68362;45.970;12.646;2023-11-19T04:34:46;5.68;;;2.53;;
78960;SDS011;68362;45.970;12.646;2023-11-19T04:35:48;4.28;;;2.38;;
78960;SDS011;68362;45.970;12.646;2023-11-19T04:36:50;4.18;;;2.60;;
78960;SDS011;68362;45.970;12.646;2023-11-19T04:37:52;3.75;;;2.47;;
78960;SDS011;68362;45.970;12.646;2023-11-19T04:38:55;5.00;;;2.85;;
78960;SDS011;68362;45.970;12.646;2023-11-19T04:39:57;3.95;;;2.58;;
78960;SDS011;68362;45.970;12.646;2023-11-19T04:40:59;5.72;;;2.97;;
78960;SDS011;68362;45.970;12.646;2023-11-19T04:42:02;5.10;;;2.50;;
78960;SDS011;68362;45.970;12.646;2023-11-19T04:43:06;4.95;;;2.38;;
78960;SDS011;68362;45.970;12.646;2023-11-19T04:44:09;5.35;;;2.60;;
78960;SDS011;68362;45.970;12.646;2023-11-19T04:45:11;5.05;;;2.20;;
78960;SDS011;68362;45.970;12.646;2023-11-19T04:46:13;8.13;;;3.08;;
78960;SDS011;68362;45.970;12.646;2023-11-19T04:47:15;3.95;;;2.85;;
78960;SDS011;68362;45.970;12.646;2023-11-19T04:48:18;3.83;;;2.50;;
78960;SDS011;68362;45.970;12.646;2023-11-19T04:49:20;5.30;;;3.03;;
78960;SDS011;68362;45.970;12.646;2023-11-19T04:50:22;3.38;;;2.55;;
78960;SDS011;68362;45.970;12.646;2023-11-19T04:51:24;5.25;;;2.22;;
78960;SDS011;68362;45.970;12.646;2023-11-19T04:52:26;5.22;;;3.13;;
78960;SDS011;68362;45.970;12.646;2023-11-19T04:53:28;4.60;;;2.35;;
78960;SDS011;68362;45.970;12.646;2023-11-19T04:54:31;5.32;;;2.40;;
78960;SDS011;68362;45.970;12.646;2023-11-19T04:55:33;4.93;;;2.10;;
78960;SDS011;68362;45.970;12.646;2023-11-19T04:56:35;4.25;;;2.45;;
78960;SDS011;68362;45.970;12.646;2023-11-19T04:57:40;4.10;;;2.72;;
78960;SDS011;68362;45.970;12.646;2023-11-19T04:58:42;4.70;;;2.38;;
78960;SDS011;68362;45.970;12.646;2023-11-19T04:59:44;4.32;;;2.40;;
78960;SDS011;68362;45.970;12.646;2023-11-19T05:00:47;5.07;;;2.53;;
78960;SDS011;68362;45.970;12.646;2023-11-19T05:01:49;4.03;;;2.63;;
78960;SDS011;68362;45.970;12.646;2023-11-19T05:02:52;6.03;;;3.13;;
78960;SDS011;68362;45.970;12.646;2023-11-19T05:03:55;5.55;;;2.72;;
78960;SDS011;68362;45.970;12.646;2023-11-19T05:05:01;5.38;;;2.70;;
78960;SDS011;68362;45.970;12.646;2023-11-19T05:06:05;5.38;;;2.75;;
78960;SDS011;68362;45.970;12.646;2023-11-19T05:08:10;4.43;;;2.38;;
78960;SDS011;68362;45.970;12.646;2023-11-19T05:09:13;4.07;;;2.50;;
78960;SDS011;68362;45.970;12.646;2023-11-19T05:10:15;3.83;;;2.38;;
78960;SDS011;68362;45.970;12.646;2023-11-19T05:11:17;4.60;;;2.75;;
78960;SDS011;68362;45.970;12.646;2023-11-19T05:12:21;4.88;;;2.63;;
78960;SDS011;68362;45.970;12.646;2023-11-19T05:13:24;5.00;;;2.75;;
78960;SDS011;68362;45.970;12.646;2023-11-19T05:14:26;4.10;;;2.45;;
78960;SDS011;68362;45.970;12.646;2023-11-19T05:15:29;4.35;;;2.58;;
78960;SDS011;68362;45.970;12.646;2023-11-19T05:16:31;6.13;;;3.15;;
78960;SDS011;68362;45.970;12.646;2023-11-19T05:17:33;4.60;;;2.60;;
78960;SDS011;68362;45.970;12.646;2023-11-19T05:18:36;4.53;;;2.65;;
78960;SDS011;68362;45.970;12.646;2023-11-19T05:19:39;5.97;;;3.38;;
78960;SDS011;68362;45.970;12.646;2023-11-19T05:20:45;6.18;;;2.92;;
78960;SDS011;68362;45.970;12.646;2023-11-19T05:21:47;3.42;;;2.33;;
78960;SDS011;68362;45.970;12.646;2023-11-19T05:22:49;3.85;;;2.22;;
78960;SDS011;68362;45.970;12.646;2023-11-19T05:23:53;5.00;;;2.55;;
78960;SDS011;68362;45.970;12.646;2023-11-19T05:24:56;5.88;;;2.50;;
78960;SDS011;68362;45.970;12.646;2023-11-19T05:25:58;3.65;;;2.30;;
78960;SDS011;68362;45.970;12.646;2023-11-19T05:27:00;5.68;;;2.88;;
78960;SDS011;68362;45.970;12.646;2023-11-19T05:28:03;6.40;;;2.50;;
78960;SDS011;68362;45.970;12.646;2023-11-19T05:29:05;6.47;;;2.88;;
78960;SDS011;68362;45.970;12.646;2023-11-19T05:30:07;4.78;;;2.40;;
78960;SDS011;68362;45.970;12.646;2023-11-19T05:32:12;3.28;;;2.15;;
78960;SDS011;68362;45.970;12.646;2023-11-19T05:33:14;4.45;;;2.53;;
78960;SDS011;68362;45.970;12.646;2023-11-19T05:34:16;5.35;;;2.90;;
78960;SDS011;68362;45.970;12.646;2023-11-19T05:35:18;5.38;;;2.40;;
78960;SDS011;68362;45.970;12.646;2023-11-19T05:36:21;4.13;;;2.53;;
78960;SDS011;68362;45.970;12.646;2023-11-19T05:37:23;3.92;;;2.45;;
78960;SDS011;68362;45.970;12.646;2023-11-19T05:38:25;6.13;;;2.30;;
78960;SDS011;68362;45.970;12.646;2023-11-19T05:39:27;3.28;;;2.10;;
78960;SDS011;68362;45.970;12.646;2023-11-19T05:41:32;5.05;;;2.53;;
78960;SDS011;68362;45.970;12.646;2023-11-19T05:42:34;4.13;;;2.72;;
78960;SDS011;68362;45.970;12.646;2023-11-19T05:43:38;4.25;;;2.30;;
78960;SDS011;68362;45.970;12.646;2023-11-19T05:44:42;3.97;;;2.50;;
78960;SDS011;68362;45.970;12.646;2023-11-19T05:45:44;4.13;;;2.33;;
78960;SDS011;68362;45.970;12.646;2023-11-19T05:46:46;4.47;;;2.60;;
78960;SDS011;68362;45.970;12.646;2023-11-19T05:47:48;4.47;;;2.58;;
78960;SDS011;68362;45.970;12.646;2023-11-19T05:48:51;3.42;;;2.72;;
78960;SDS011;68362;45.970;12.646;2023-11-19T05:49:54;4.18;;;2.35;;
78960;SDS011;68362;45.970;12.646;2023-11-19T05:50:56;3.97;;;2.55;;
78960;SDS011;68362;45.970;12.646;2023-11-19T05:51:58;3.22;;;2.30;;
78960;SDS011;68362;45.970;12.646;2023-11-19T05:53:00;4.25;;;2.28;;
78960;SDS011;68362;45.970;12.646;2023-11-19T05:54:03;3.97;;;2.53;;
78960;SDS011;68362;45.970;12.646;2023-11-19T05:55:05;3.35;;;2.03;;
78960;SDS011;68362;45.970;12.646;2023-11-19T05:56:11;3.55;;;2.60;;
78960;SDS011;68362;45.970;12.646;2023-11-19T05:57:13;5.38;;;3.10;;
78960;SDS011;68362;45.970;12.646;2023-11-19T05:58:16;4.47;;;2.35;;
78960;SDS011;68362;45.970;12.646;2023-11-19T05:59:18;4.88;;;2.40;;
78960;SDS011;68362;45.970;12.646;2023-11-19T06:00:20;4.28;;;2.45;;
78960;SDS011;68362;45.970;12.646;2023-11-19T06:01:22;4.40;;;2.13;;
78960;SDS011;68362;45.970;12.646;2023-11-19T06:02:25;3.42;;;2.40;;
78960;SDS011;68362;45.970;12.646;2023-11-19T06:03:29;4.15;;;2.42;;
78960;SDS011;68362;45.970;12.646;2023-11-19T06:04:31;3.13;;;1.98;;
78960;SDS011;68362;45.970;12.646;2023-11-19T06:05:33;3.78;;;1.95;;
78960;SDS011;68362;45.970;12.646;2023-11-19T06:06:36;5.25;;;2.50;;
78960;SDS011;68362;45.970;12.646;2023-11-19T06:07:38;3.78;;;2.42;;
78960;SDS011;68362;45.970;12.646;2023-11-19T06:08:40;4.63;;;2.80;;
78960;SDS011;68362;45.970;12.646;2023-11-19T06:10:45;3.03;;;2.08;;
78960;SDS011;68362;45.970;12.646;2023-11-19T06:11:49;4.35;;;2.08;;
78960;SDS011;68362;45.970;12.646;2023-11-19T06:12:52;4.70;;;2.10;;
78960;SDS011;68362;45.970;12.646;2023-11-19T06:13:58;4.35;;;2.17;;
78960;SDS011;68362;45.970;12.646;2023-11-19T06:15:00;4.03;;;2.08;;
78960;SDS011;68362;45.970;12.646;2023-11-19T06:16:02;3.17;;;2.38;;
78960;SDS011;68362;45.970;12.646;2023-11-19T06:17:04;6.97;;;2.42;;
78960;SDS011;68362;45.970;12.646;2023-11-19T06:18:07;3.53;;;1.92;;
78960;SDS011;68362;45.970;12.646;2023-11-19T06:19:10;4.22;;;2.33;;
78960;SDS011;68362;45.970;12.646;2023-11-19T06:20:13;3.42;;;2.42;;
78960;SDS011;68362;45.970;12.646;2023-11-19T06:21:16;5.13;;;2.65;;
78960;SDS011;68362;45.970;12.646;2023-11-19T06:22:18;3.97;;;2.30;;
78960;SDS011;68362;45.970;12.646;2023-11-19T06:23:20;3.47;;;2.05;;
78960;SDS011;68362;45.970;12.646;2023-11-19T06:24:22;3.85;;;2.58;;
78960;SDS011;68362;45.970;12.646;2023-11-19T06:25:24;2.95;;;1.83;;
78960;SDS011;68362;45.970;12.646;2023-11-19T06:26:27;3.60;;;2.05;;